Time,TemperatureF,DewpointF,PressureIn,WindDirection,WindDirectionDegrees,WindSpeedMPH,WindSpeedGustMPH,Humidity,HourlyPrecipIn,Conditions,Clouds,dailyrainin,SoftwareType,DateUTC
2013-01-10 00:00:00,6.5,1.9,30.45,ENE,72,0.0,1.0,81,0.00,,,0.00,LWC V2.10 B1813,2013-01-10 09:00:00,
2013-01-10 00:05:00,6.7,2.7,30.45,ENE,72,0.0,1.0,83,0.00,,,0.00,LWC V2.10 B1813,2013-01-10 09:05:00,
2013-01-10 00:10:00,6.9,3.4,30.45,ENE,71,0.0,1.0,85,0.00,,,0.00,LWC V2.10 B1813,2013-01-10 09:10:00,
2013-01-10 00:15:00,7.3,4.0,30.45,ENE,71,0.0,0.0,86,0.00,,,0.00,LWC V2.10 B1813,2013-01-10 09:15:00,
2013-01-10 00:20:00,7.8,4.5,30.45,East,81,2.0,2.0,86,0.00,,,0.00,LWC V2.10 B1813,2013-01-10 09:20:00,
2013-01-10 00:25:00,7.7,3.9,30.45,East,88,0.0,1.0,84,0.00,,,0.00,LWC V2.10 B1813,2013-01-10 09:25:00,
2013-01-10 00:30:00,7.6,3.8,30.45,East,88,1.0,2.0,84,0.00,,,0.00,LWC V2.10 B1813,2013-01-10 09:30:00,
2013-01-10 00:35:00,7.5,3.7,30.45,East,88,0.0,1.0,84,0.00,,,0.00,LWC V2.10 B1813,2013-01-10 09:35:00,
2013-01-10 00:40:00,7.3,3.5,30.44,East,87,0.0,0.0,84,0.00,,,0.00,LWC V2.10 B1813,2013-01-10 09:40:00,
2013-01-10 00:45:00,7.2,3.4,30.44,East,88,1.0,1.0,84,0.00,,,0.00,LWC V2.10 B1813,2013-01-10 09:45:00,
2013-01-10 00:50:00,7.2,3.7,30.44,East,88,1.0,2.0,85,0.00,,,0.00,LWC V2.10 B1813,2013-01-10 09:50:00,
2013-01-10 00:55:00,7.3,3.8,30.44,East,88,1.0,2.0,85,0.00,,,0.00,LWC V2.10 B1813,2013-01-10 09:55:00,
2013-01-10 01:00:00,7.5,4.2,30.43,NNE,32,2.0,4.0,86,0.00,,,0.00,LWC V2.10 B1813,2013-01-10 10:00:00,
2013-01-10 01:05:00,8.1,4.8,30.43,NE,53,1.0,3.0,86,0.00,,,0.00,LWC V2.10 B1813,2013-01-10 10:05:00,
2013-01-10 01:10:00,8.6,5.0,30.43,NE,53,1.0,1.0,85,0.00,,,0.00,LWC V2.10 B1813,2013-01-10 10:10:00,
2013-01-10 01:15:00,8.8,5.2,30.43,NE,53,0.0,2.0,85,0.00,,,0.00,LWC V2.10 B1813,2013-01-10 10:15:00,
2013-01-10 01:20:00,8.8,5.2,30.43,NE,51,0.0,3.0,85,0.00,,,0.00,LWC V2.10 B1813,2013-01-10 10:20:00,
2013-01-10 01:25:00,9.0,5.4,30.43,NE,53,0.0,2.0,85,0.00,,,0.00,LWC V2.10 B1813,2013-01-10 10:25:00,
2013-01-10 01:30:00,8.9,5.1,30.43,ENE,70,0.0,2.0,84,0.00,,,0.00,LWC V2.10 B1813,2013-01-10 10:30:00,
2013-01-10 01:35:00,8.6,4.5,30.43,ENE,69,0.0,0.0,83,0.00,,,0.00,LWC V2.10 B1813,2013-01-10 10:35:00,
2013-01-10 01:40:00,8.4,4.3,30.43,ENE,70,1.0,1.0,83,0.00,,,0.00,LWC V2.10 B1813,2013-01-10 10:40:00,
2013-01-10 01:45:00,8.1,3.8,30.43,NE,35,0.0,2.0,82,0.00,,,0.00,LWC V2.10 B1813,2013-01-10 10:45:00,
2013-01-10 01:50:00,7.7,3.6,30.43,NE,34,1.0,2.0,83,0.00,,,0.00,LWC V2.10 B1813,2013-01-10 10:50:00,
2013-01-10 01:55:00,7.7,3.9,30.43,ENE,61,1.0,3.0,84,0.00,,,0.00,LWC V2.10 B1813,2013-01-10 10:55:00,
2013-01-10 02:00:00,7.7,3.9,30.43,East,85,0.0,5.0,84,0.00,,,0.00,LWC V2.10 B1813,2013-01-10 11:00:00,
2013-01-10 02:05:00,7.6,3.3,30.43,SE,129,1.0,7.0,82,0.00,,,0.00,LWC V2.10 B1813,2013-01-10 11:05:00,
2013-01-10 02:10:00,7.4,3.1,30.43,ESE,105,0.0,0.0,82,0.00,,,0.00,LWC V2.10 B1813,2013-01-10 11:10:00,
2013-01-10 02:15:00,7.2,2.9,30.43,ESE,105,0.0,2.0,82,0.00,,,0.00,LWC V2.10 B1813,2013-01-10 11:15:00,
2013-01-10 02:20:00,7.0,2.7,30.43,ESE,105,1.0,1.0,82,0.00,,,0.00,LWC V2.10 B1813,2013-01-10 11:20:00,
2013-01-10 02:25:00,6.8,2.5,30.43,ESE,105,1.0,2.0,82,0.00,,,0.00,LWC V2.10 B1813,2013-01-10 11:25:00,
2013-01-10 02:30:00,6.8,2.8,30.43,ESE,105,0.0,2.0,83,0.00,,,0.00,LWC V2.10 B1813,2013-01-10 11:30:00,
2013-01-10 02:35:00,6.7,2.7,30.43,ESE,105,1.0,2.0,83,0.00,,,0.00,LWC V2.10 B1813,2013-01-10 11:35:00,
2013-01-10 02:40:00,6.5,2.5,30.43,ESE,105,0.0,0.0,83,0.00,,,0.00,LWC V2.10 B1813,2013-01-10 11:40:00,
2013-01-10 02:45:00,6.5,2.7,30.42,ESE,105,0.0,0.0,84,0.00,,,0.00,LWC V2.10 B1813,2013-01-10 11:45:00,
2013-01-10 02:50:00,6.5,3.0,30.43,ESE,111,3.0,4.0,85,0.00,,,0.00,LWC V2.10 B1813,2013-01-10 11:50:00,
2013-01-10 02:55:00,6.3,2.5,30.43,ESE,115,3.0,3.0,84,0.00,,,0.00,LWC V2.10 B1813,2013-01-10 11:55:00,
2013-01-10 03:00:00,6.2,2.4,30.43,ESE,115,2.0,3.0,84,0.00,,,0.00,LWC V2.10 B1813,2013-01-10 12:00:00,
2013-01-10 03:05:00,6.1,2.3,30.43,ESE,117,3.0,3.0,84,0.00,,,0.00,LWC V2.10 B1813,2013-01-10 12:05:00,
2013-01-10 03:10:00,6.2,2.7,30.43,SE,129,0.0,1.0,85,0.00,,,0.00,LWC V2.10 B1813,2013-01-10 12:10:00,
2013-01-10 03:15:00,6.3,2.8,30.43,South,184,2.0,2.0,85,0.00,,,0.00,LWC V2.10 B1813,2013-01-10 12:15:00,
2013-01-10 03:20:00,6.3,2.8,30.43,SSW,205,0.0,3.0,85,0.00,,,0.00,LWC V2.10 B1813,2013-01-10 12:20:00,
2013-01-10 03:25:00,6.3,2.8,30.43,SSW,206,0.0,2.0,85,0.00,,,0.00,LWC V2.10 B1813,2013-01-10 12:25:00,
2013-01-10 03:30:00,6.3,2.5,30.43,SSW,207,1.0,1.0,84,0.00,,,0.00,LWC V2.10 B1813,2013-01-10 12:30:00,
2013-01-10 03:35:00,6.3,2.8,30.43,SW,225,0.0,2.0,85,0.00,,,0.00,LWC V2.10 B1813,2013-01-10 12:35:00,
2013-01-10 03:40:00,6.4,2.9,30.43,SW,226,1.0,2.0,85,0.00,,,0.00,LWC V2.10 B1813,2013-01-10 12:40:00,
2013-01-10 03:45:00,6.4,2.9,30.43,SW,226,1.0,2.0,85,0.00,,,0.00,LWC V2.10 B1813,2013-01-10 12:45:00,
2013-01-10 03:50:00,6.4,2.9,30.43,SW,226,1.0,2.0,85,0.00,,,0.00,LWC V2.10 B1813,2013-01-10 12:50:00,
2013-01-10 03:55:00,6.5,3.0,30.43,SW,226,1.0,2.0,85,0.00,,,0.00,LWC V2.10 B1813,2013-01-10 12:55:00,
2013-01-10 04:00:00,6.5,3.0,30.43,SW,226,1.0,3.0,85,0.00,,,0.00,LWC V2.10 B1813,2013-01-10 13:00:00,
2013-01-10 04:05:00,6.5,3.0,30.43,SW,226,0.0,1.0,85,0.00,,,0.00,LWC V2.10 B1813,2013-01-10 13:05:00,
2013-01-10 04:10:00,6.7,3.2,30.43,SW,226,0.0,1.0,85,0.00,,,0.00,LWC V2.10 B1813,2013-01-10 13:10:00,
2013-01-10 04:15:00,6.8,3.5,30.43,SW,226,0.0,0.0,86,0.00,,,0.00,LWC V2.10 B1813,2013-01-10 13:15:00,
2013-01-10 04:20:00,7.0,3.7,30.43,SW,226,0.0,0.0,86,0.00,,,0.00,LWC V2.10 B1813,2013-01-10 13:20:00,
2013-01-10 04:25:00,7.3,4.3,30.44,SW,226,0.0,1.0,87,0.00,,,0.00,LWC V2.10 B1813,2013-01-10 13:25:00,
2013-01-10 04:30:00,7.6,4.6,30.44,SW,227,0.0,0.0,87,0.00,,,0.00,LWC V2.10 B1813,2013-01-10 13:30:00,
2013-01-10 04:35:00,7.8,4.8,30.44,SSW,203,0.0,0.0,87,0.00,,,0.00,LWC V2.10 B1813,2013-01-10 13:35:00,
2013-01-10 04:40:00,8.0,4.9,30.44,SSW,203,0.0,0.0,87,0.00,,,0.00,LWC V2.10 B1813,2013-01-10 13:40:00,
2013-01-10 04:45:00,8.1,4.8,30.44,SSW,203,1.0,1.0,86,0.00,,,0.00,LWC V2.10 B1813,2013-01-10 13:45:00,
2013-01-10 04:50:00,8.2,4.9,30.44,SSW,203,0.0,0.0,86,0.00,,,0.00,LWC V2.10 B1813,2013-01-10 13:50:00,
2013-01-10 04:55:00,8.3,5.0,30.44,SSW,202,1.0,2.0,86,0.00,,,0.00,LWC V2.10 B1813,2013-01-10 13:55:00,
2013-01-10 05:00:00,8.5,5.2,30.44,SSW,202,0.0,0.0,86,0.00,,,0.00,LWC V2.10 B1813,2013-01-10 14:00:00,
2013-01-10 05:05:00,8.5,5.2,30.45,SSW,202,2.0,2.0,86,0.00,,,0.00,LWC V2.10 B1813,2013-01-10 14:05:00,
2013-01-10 05:10:00,8.6,5.3,30.45,SSW,209,2.0,3.0,86,0.00,,,0.00,LWC V2.10 B1813,2013-01-10 14:10:00,
2013-01-10 05:15:00,8.6,5.3,30.45,SSW,213,0.0,2.0,86,0.00,,,0.00,LWC V2.10 B1813,2013-01-10 14:15:00,
2013-01-10 05:20:00,8.6,5.3,30.45,SSW,213,0.0,2.0,86,0.00,,,0.00,LWC V2.10 B1813,2013-01-10 14:20:00,
2013-01-10 05:25:00,8.7,5.4,30.46,SSW,213,1.0,2.0,86,0.00,,,0.00,LWC V2.10 B1813,2013-01-10 14:25:00,
2013-01-10 05:30:00,8.7,5.4,30.45,SSW,213,1.0,2.0,86,0.00,,,0.00,LWC V2.10 B1813,2013-01-10 14:30:00,
2013-01-10 05:35:00,8.7,5.4,30.45,SSW,213,0.0,2.0,86,0.00,,,0.00,LWC V2.10 B1813,2013-01-10 14:35:00,
2013-01-10 05:40:00,8.7,5.4,30.46,SSW,213,0.0,0.0,86,0.00,,,0.00,LWC V2.10 B1813,2013-01-10 14:40:00,
2013-01-10 05:45:00,8.9,5.6,30.45,SSW,213,0.0,0.0,86,0.00,,,0.00,LWC V2.10 B1813,2013-01-10 14:45:00,
2013-01-10 05:50:00,8.9,5.3,30.46,SSW,213,0.0,0.0,85,0.00,,,0.00,LWC V2.10 B1813,2013-01-10 14:50:00,
2013-01-10 05:55:00,8.9,5.3,30.46,SSW,213,0.0,1.0,85,0.00,,,0.00,LWC V2.10 B1813,2013-01-10 14:55:00,
2013-01-10 06:00:00,8.9,5.6,30.46,SSW,213,0.0,1.0,86,0.00,,,0.00,LWC V2.10 B1813,2013-01-10 15:00:00,
2013-01-10 06:05:00,8.9,5.6,30.47,SSW,213,0.0,0.0,86,0.00,,,0.00,LWC V2.10 B1813,2013-01-10 15:05:00,
2013-01-10 06:10:00,8.9,5.6,30.47,SSW,213,0.0,1.0,86,0.00,,,0.00,LWC V2.10 B1813,2013-01-10 15:10:00,
2013-01-10 06:15:00,8.9,5.3,30.47,SSW,213,0.0,1.0,85,0.00,,,0.00,LWC V2.10 B1813,2013-01-10 15:15:00,
2013-01-10 06:20:00,8.9,5.3,30.47,SSW,213,0.0,0.0,85,0.00,,,0.00,LWC V2.10 B1813,2013-01-10 15:20:00,
2013-01-10 06:25:00,8.9,5.3,30.47,SSW,213,0.0,1.0,85,0.00,,,0.00,LWC V2.10 B1813,2013-01-10 15:25:00,
2013-01-10 06:30:00,9.0,5.4,30.47,SSW,213,1.0,3.0,85,0.00,,,0.00,LWC V2.10 B1813,2013-01-10 15:30:00,
2013-01-10 06:35:00,9.0,5.7,30.47,SSW,213,0.0,1.0,86,0.00,,,0.00,LWC V2.10 B1813,2013-01-10 15:35:00,
2013-01-10 06:40:00,9.0,5.7,30.47,SSW,213,0.0,2.0,86,0.00,,,0.00,LWC V2.10 B1813,2013-01-10 15:40:00,
2013-01-10 06:45:00,9.1,5.8,30.47,SSW,213,0.0,1.0,86,0.00,,,0.00,LWC V2.10 B1813,2013-01-10 15:45:00,
2013-01-10 06:50:00,9.1,5.5,30.47,SSW,213,0.0,0.0,85,0.00,,,0.00,LWC V2.10 B1813,2013-01-10 15:50:00,
2013-01-10 06:55:00,9.1,5.3,30.47,SSW,213,0.0,0.0,84,0.00,,,0.00,LWC V2.10 B1813,2013-01-10 15:55:00,
2013-01-10 07:00:00,9.1,5.3,30.47,SSW,213,0.0,0.0,84,0.00,,,0.00,LWC V2.10 B1813,2013-01-10 16:00:00,
2013-01-10 07:05:00,9.0,4.9,30.48,SSW,213,0.0,0.0,83,0.00,,,0.00,LWC V2.10 B1813,2013-01-10 16:05:00,
2013-01-10 07:10:00,8.8,4.4,30.48,SSW,213,1.0,2.0,82,0.00,,,0.00,LWC V2.10 B1813,2013-01-10 16:10:00,
2013-01-10 07:15:00,8.6,4.0,30.48,SSW,200,2.0,2.0,81,0.00,,,0.00,LWC V2.10 B1813,2013-01-10 16:15:00,
2013-01-10 07:20:00,8.5,4.2,30.48,SSW,192,0.0,2.0,82,0.00,,,0.00,LWC V2.10 B1813,2013-01-10 16:20:00,
2013-01-10 07:25:00,8.3,3.7,30.49,South,188,1.0,3.0,81,0.00,,,0.00,LWC V2.10 B1813,2013-01-10 16:25:00,
2013-01-10 07:30:00,8.2,3.6,30.49,South,186,0.0,2.0,81,0.00,,,0.00,LWC V2.10 B1813,2013-01-10 16:30:00,
2013-01-10 07:35:00,8.1,3.8,30.49,South,185,1.0,2.0,82,0.00,,,0.00,LWC V2.10 B1813,2013-01-10 16:35:00,
2013-01-10 07:40:00,8.0,3.4,30.49,South,184,1.0,2.0,81,0.00,,,0.00,LWC V2.10 B1813,2013-01-10 16:40:00,
2013-01-10 07:45:00,7.8,3.2,30.49,South,181,2.0,2.0,81,0.00,,,0.00,LWC V2.10 B1813,2013-01-10 16:45:00,
2013-01-10 07:50:00,7.7,3.4,30.50,SSE,163,2.0,3.0,82,0.00,,,0.00,LWC V2.10 B1813,2013-01-10 16:50:00,
2013-01-10 07:55:00,7.6,3.3,30.50,SSE,163,1.0,2.0,82,0.00,,,0.00,LWC V2.10 B1813,2013-01-10 16:55:00,
2013-01-10 08:00:00,7.5,3.2,30.50,SSE,159,4.0,4.0,82,0.00,,,0.00,LWC V2.10 B1813,2013-01-10 17:00:00,
2013-01-10 08:05:00,7.4,3.3,30.50,SSE,160,0.0,3.0,83,0.00,,,0.00,LWC V2.10 B1813,2013-01-10 17:05:00,
2013-01-10 08:10:00,7.4,3.3,30.51,SSE,160,0.0,2.0,83,0.00,,,0.00,LWC V2.10 B1813,2013-01-10 17:10:00,
2013-01-10 08:15:00,7.5,3.4,30.51,SSE,160,2.0,3.0,83,0.00,,,0.00,LWC V2.10 B1813,2013-01-10 17:15:00,
2013-01-10 08:20:00,7.5,3.4,30.51,SSE,161,2.0,3.0,83,0.00,,,0.00,LWC V2.10 B1813,2013-01-10 17:20:00,
2013-01-10 08:25:00,7.5,3.2,30.51,SSE,160,3.0,4.0,82,0.00,,,0.00,LWC V2.10 B1813,2013-01-10 17:25:00,
2013-01-10 08:30:00,7.4,3.1,30.52,SSE,160,0.0,2.0,82,0.00,,,0.00,LWC V2.10 B1813,2013-01-10 17:30:00,
2013-01-10 08:35:00,7.4,3.1,30.52,SSE,158,1.0,4.0,82,0.00,,,0.00,LWC V2.10 B1813,2013-01-10 17:35:00,
2013-01-10 08:40:00,7.4,3.1,30.52,SSE,161,2.0,2.0,82,0.00,,,0.00,LWC V2.10 B1813,2013-01-10 17:40:00,
2013-01-10 08:45:00,7.4,3.1,30.52,SSE,161,0.0,1.0,82,0.00,,,0.00,LWC V2.10 B1813,2013-01-10 17:45:00,
2013-01-10 08:50:00,7.4,3.1,30.52,SSE,160,1.0,1.0,82,0.00,,,0.00,LWC V2.10 B1813,2013-01-10 17:50:00,
2013-01-10 08:55:00,7.4,3.1,30.52,SSE,161,0.0,1.0,82,0.00,,,0.00,LWC V2.10 B1813,2013-01-10 17:55:00,
2013-01-10 09:00:00,7.4,3.1,30.52,SSE,161,1.0,2.0,82,0.00,,,0.00,LWC V2.10 B1813,2013-01-10 18:00:00,
2013-01-10 09:05:00,7.4,3.1,30.53,SSE,160,1.0,1.0,82,0.00,,,0.00,LWC V2.10 B1813,2013-01-10 18:05:00,
2013-01-10 09:10:00,7.4,3.1,30.53,SSE,161,0.0,1.0,82,0.00,,,0.00,LWC V2.10 B1813,2013-01-10 18:10:00,
2013-01-10 09:15:00,7.5,3.2,30.53,SSE,161,0.0,0.0,82,0.00,,,0.00,LWC V2.10 B1813,2013-01-10 18:15:00,
2013-01-10 09:20:00,7.5,3.2,30.53,SSE,161,0.0,2.0,82,0.00,,,0.00,LWC V2.10 B1813,2013-01-10 18:20:00,
2013-01-10 09:25:00,7.6,3.5,30.53,SSE,160,0.0,1.0,83,0.00,,,0.00,LWC V2.10 B1813,2013-01-10 18:25:00,
2013-01-10 09:30:00,7.6,3.8,30.53,SSE,161,0.0,1.0,84,0.00,,,0.00,LWC V2.10 B1813,2013-01-10 18:30:00,
2013-01-10 09:35:00,7.7,3.9,30.53,SSE,161,0.0,0.0,84,0.00,,,0.00,LWC V2.10 B1813,2013-01-10 18:35:00,
2013-01-10 09:40:00,7.8,4.0,30.53,SSE,161,0.0,0.0,84,0.00,,,0.00,LWC V2.10 B1813,2013-01-10 18:40:00,
2013-01-10 09:45:00,7.8,4.0,30.53,SSE,160,0.0,0.0,84,0.00,,,0.00,LWC V2.10 B1813,2013-01-10 18:45:00,
2013-01-10 09:50:00,7.9,4.1,30.53,SSE,161,0.0,1.0,84,0.00,,,0.00,LWC V2.10 B1813,2013-01-10 18:50:00,
2013-01-10 09:55:00,7.8,3.7,30.53,SSE,161,0.0,0.0,83,0.00,,,0.00,LWC V2.10 B1813,2013-01-10 18:55:00,
2013-01-10 10:00:00,7.8,3.7,30.53,SSE,161,1.0,2.0,83,0.00,,,0.00,LWC V2.10 B1813,2013-01-10 19:00:00,
2013-01-10 10:05:00,7.7,3.6,30.53,SSE,161,1.0,1.0,83,0.00,,,0.00,LWC V2.10 B1813,2013-01-10 19:05:00,
2013-01-10 10:10:00,7.7,3.6,30.53,SSE,160,1.0,2.0,83,0.00,,,0.00,LWC V2.10 B1813,2013-01-10 19:10:00,
2013-01-10 10:15:00,7.7,3.9,30.53,SSE,160,0.0,1.0,84,0.00,,,0.00,LWC V2.10 B1813,2013-01-10 19:15:00,
2013-01-10 10:20:00,7.7,3.9,30.54,SSE,161,0.0,0.0,84,0.00,,,0.00,LWC V2.10 B1813,2013-01-10 19:20:00,
2013-01-10 10:25:00,7.7,3.9,30.53,SSE,161,0.0,0.0,84,0.00,,,0.00,LWC V2.10 B1813,2013-01-10 19:25:00,
2013-01-10 10:30:00,7.7,3.9,30.54,SSE,161,0.0,1.0,84,0.00,,,0.00,LWC V2.10 B1813,2013-01-10 19:30:00,
2013-01-10 10:35:00,7.8,4.0,30.54,SSE,160,0.0,0.0,84,0.00,,,0.00,LWC V2.10 B1813,2013-01-10 19:35:00,
2013-01-10 10:40:00,7.8,4.0,30.54,SSE,161,0.0,0.0,84,0.00,,,0.00,LWC V2.10 B1813,2013-01-10 19:40:00,
2013-01-10 10:45:00,7.8,4.0,30.54,SSE,161,0.0,0.0,84,0.00,,,0.00,LWC V2.10 B1813,2013-01-10 19:45:00,
2013-01-10 10:50:00,7.9,4.1,30.55,SSE,161,0.0,1.0,84,0.00,,,0.00,LWC V2.10 B1813,2013-01-10 19:50:00,
2013-01-10 10:55:00,7.9,4.1,30.54,SSE,160,0.0,0.0,84,0.00,,,0.00,LWC V2.10 B1813,2013-01-10 19:55:00,
2013-01-10 11:00:00,7.9,4.1,30.54,SSE,161,0.0,0.0,84,0.00,,,0.00,LWC V2.10 B1813,2013-01-10 20:00:00,
2013-01-10 11:05:00,7.9,4.1,30.54,SSE,161,0.0,0.0,84,0.00,,,0.00,LWC V2.10 B1813,2013-01-10 20:05:00,
2013-01-10 11:10:00,8.0,4.2,30.55,SSE,160,0.0,0.0,84,0.00,,,0.00,LWC V2.10 B1813,2013-01-10 20:10:00,
2013-01-10 11:15:00,8.0,4.4,30.55,SSE,161,0.0,0.0,85,0.00,,,0.00,LWC V2.10 B1813,2013-01-10 20:15:00,
2013-01-10 11:20:00,8.1,4.5,30.55,SSE,161,0.0,0.0,85,0.00,,,0.00,LWC V2.10 B1813,2013-01-10 20:20:00,
2013-01-10 11:25:00,8.2,4.6,30.55,SSE,161,0.0,0.0,85,0.00,,,0.00,LWC V2.10 B1813,2013-01-10 20:25:00,
2013-01-10 11:30:00,8.3,4.7,30.55,SSE,161,0.0,0.0,85,0.00,,,0.00,LWC V2.10 B1813,2013-01-10 20:30:00,
2013-01-10 11:35:00,8.3,4.7,30.55,SSE,161,0.0,0.0,85,0.00,,,0.00,LWC V2.10 B1813,2013-01-10 20:35:00,
2013-01-10 11:40:00,8.5,4.9,30.55,SSE,161,0.0,0.0,85,0.00,,,0.00,LWC V2.10 B1813,2013-01-10 20:40:00,
2013-01-10 11:45:00,8.6,5.0,30.55,SSE,160,0.0,0.0,85,0.00,,,0.00,LWC V2.10 B1813,2013-01-10 20:45:00,
2013-01-10 11:50:00,8.8,5.2,30.55,SSE,161,0.0,1.0,85,0.00,,,0.00,LWC V2.10 B1813,2013-01-10 20:50:00,
2013-01-10 11:55:00,8.9,5.3,30.55,SSE,161,1.0,1.0,85,0.00,,,0.00,LWC V2.10 B1813,2013-01-10 20:55:00,
2013-01-10 12:00:00,9.1,5.5,30.56,SSE,161,1.0,2.0,85,0.00,,,0.00,LWC V2.10 B1813,2013-01-10 21:00:00,
2013-01-10 12:05:00,9.2,5.6,30.55,SSE,160,1.0,2.0,85,0.00,,,0.00,LWC V2.10 B1813,2013-01-10 21:05:00,
2013-01-10 12:10:00,9.3,5.7,30.55,SSE,161,0.0,1.0,85,0.00,,,0.00,LWC V2.10 B1813,2013-01-10 21:10:00,
2013-01-10 12:15:00,9.4,5.8,30.55,SSE,162,2.0,2.0,85,0.00,,,0.00,LWC V2.10 B1813,2013-01-10 21:15:00,
2013-01-10 12:20:00,9.5,5.9,30.55,SSE,167,1.0,3.0,85,0.00,,,0.00,LWC V2.10 B1813,2013-01-10 21:20:00,
2013-01-10 12:25:00,9.5,5.9,30.56,SSE,167,0.0,2.0,85,0.00,,,0.00,LWC V2.10 B1813,2013-01-10 21:25:00,
2013-01-10 12:30:00,9.6,6.0,30.56,SSE,167,0.0,1.0,85,0.00,,,0.00,LWC V2.10 B1813,2013-01-10 21:30:00,
2013-01-10 12:35:00,9.6,6.0,30.56,SSE,167,2.0,2.0,85,0.00,,,0.00,LWC V2.10 B1813,2013-01-10 21:35:00,
2013-01-10 12:40:00,9.7,6.1,30.56,SSE,167,0.0,0.0,85,0.00,,,0.00,LWC V2.10 B1813,2013-01-10 21:40:00,
2013-01-10 12:45:00,9.8,6.2,30.56,South,190,1.0,2.0,85,0.00,,,0.00,LWC V2.10 B1813,2013-01-10 21:45:00,
2013-01-10 12:50:00,9.9,6.3,30.56,SSW,207,2.0,3.0,85,0.00,,,0.00,LWC V2.10 B1813,2013-01-10 21:50:00,
2013-01-10 12:55:00,9.9,6.3,30.56,SW,221,3.0,3.0,85,0.00,,,0.00,LWC V2.10 B1813,2013-01-10 21:55:00,
2013-01-10 13:01:00,10.0,6.4,30.56,SW,220,0.0,2.0,85,0.00,,,0.00,LWC V2.10 B1813,2013-01-10 22:01:00,
2013-01-10 13:06:00,10.1,6.5,30.56,SW,221,1.0,2.0,85,0.00,,,0.00,LWC V2.10 B1813,2013-01-10 22:06:00,
2013-01-10 13:11:00,10.2,6.6,30.56,SW,219,0.0,2.0,85,0.00,,,0.00,LWC V2.10 B1813,2013-01-10 22:11:00,
2013-01-10 13:16:00,10.3,6.7,30.56,SW,220,1.0,1.0,85,0.00,,,0.00,LWC V2.10 B1813,2013-01-10 22:16:00,
2013-01-10 13:21:00,10.3,6.7,30.57,SW,221,1.0,1.0,85,0.00,,,0.00,LWC V2.10 B1813,2013-01-10 22:21:00,
2013-01-10 13:26:00,10.4,6.8,30.57,SW,221,0.0,2.0,85,0.00,,,0.00,LWC V2.10 B1813,2013-01-10 22:26:00,
2013-01-10 13:31:00,10.4,6.8,30.57,SW,219,1.0,1.0,85,0.00,,,0.00,LWC V2.10 B1813,2013-01-10 22:31:00,
2013-01-10 13:36:00,10.5,6.9,30.57,SW,220,1.0,1.0,85,0.00,,,0.00,LWC V2.10 B1813,2013-01-10 22:36:00,
2013-01-10 13:41:00,10.5,6.9,30.57,SW,221,0.0,0.0,85,0.00,,,0.00,LWC V2.10 B1813,2013-01-10 22:41:00,
2013-01-10 13:46:00,10.6,7.0,30.57,SW,221,0.0,1.0,85,0.00,,,0.00,LWC V2.10 B1813,2013-01-10 22:46:00,
2013-01-10 13:51:00,10.7,7.4,30.57,SW,221,0.0,0.0,86,0.00,,,0.00,LWC V2.10 B1813,2013-01-10 22:51:00,
2013-01-10 13:56:00,10.7,7.4,30.57,SW,221,0.0,0.0,86,0.00,,,0.00,LWC V2.10 B1813,2013-01-10 22:56:00,
2013-01-10 14:01:00,10.8,7.5,30.57,SW,220,0.0,0.0,86,0.00,,,0.00,LWC V2.10 B1813,2013-01-10 23:01:00,
2013-01-10 14:06:00,10.9,7.6,30.58,SW,221,0.0,0.0,86,0.00,,,0.00,LWC V2.10 B1813,2013-01-10 23:06:00,
2013-01-10 14:11:00,11.0,7.7,30.58,SW,220,0.0,0.0,86,0.00,,,0.00,LWC V2.10 B1813,2013-01-10 23:11:00,
2013-01-10 14:16:00,11.1,7.7,30.58,SW,221,0.0,0.0,86,0.00,,,0.00,LWC V2.10 B1813,2013-01-10 23:16:00,
2013-01-10 14:21:00,11.2,7.8,30.59,SW,221,0.0,0.0,86,0.00,,,0.00,LWC V2.10 B1813,2013-01-10 23:21:00,
2013-01-10 14:26:00,11.3,7.9,30.59,SW,220,1.0,1.0,86,0.00,,,0.00,LWC V2.10 B1813,2013-01-10 23:26:00,
2013-01-10 14:31:00,11.4,7.8,30.59,SW,220,0.0,1.0,85,0.00,,,0.00,LWC V2.10 B1813,2013-01-10 23:31:00,
2013-01-10 14:36:00,11.4,7.8,30.59,SW,221,0.0,0.0,85,0.00,,,0.00,LWC V2.10 B1813,2013-01-10 23:36:00,
2013-01-10 14:41:00,11.4,7.8,30.59,South,174,0.0,2.0,85,0.00,,,0.00,LWC V2.10 B1813,2013-01-10 23:41:00,
2013-01-10 14:46:00,11.3,7.7,30.59,SSE,162,1.0,2.0,85,0.00,,,0.00,LWC V2.10 B1813,2013-01-10 23:46:00,
2013-01-10 14:51:00,11.3,7.7,30.59,SE,145,0.0,1.0,85,0.00,,,0.00,LWC V2.10 B1813,2013-01-10 23:51:00,
2013-01-10 14:56:00,11.2,7.6,30.59,SE,145,0.0,2.0,85,0.00,,,0.00,LWC V2.10 B1813,2013-01-10 23:56:00,
2013-01-10 15:01:00,11.2,7.6,30.59,SE,146,1.0,1.0,85,0.00,,,0.00,LWC V2.10 B1813,2013-01-11 00:01:00,
2013-01-10 15:06:00,11.1,7.7,30.59,SE,146,2.0,3.0,86,0.00,,,0.00,LWC V2.10 B1813,2013-01-11 00:06:00,
2013-01-10 15:11:00,11.0,7.7,30.59,SE,146,1.0,2.0,86,0.00,,,0.00,LWC V2.10 B1813,2013-01-11 00:11:00,
2013-01-10 15:16:00,10.9,7.6,30.59,SE,143,0.0,3.0,86,0.00,,,0.00,LWC V2.10 B1813,2013-01-11 00:16:00,
2013-01-10 15:21:00,10.9,7.6,30.60,SSE,157,3.0,3.0,86,0.00,,,0.00,LWC V2.10 B1813,2013-01-11 00:21:00,
2013-01-10 15:26:00,10.8,7.5,30.60,SSE,152,1.0,3.0,86,0.00,,,0.00,LWC V2.10 B1813,2013-01-11 00:26:00,
2013-01-10 15:31:00,10.8,7.5,30.60,SE,134,0.0,3.0,86,0.00,,,0.00,LWC V2.10 B1813,2013-01-11 00:31:00,
2013-01-10 15:36:00,10.7,7.4,30.60,SE,135,1.0,2.0,86,0.00,,,0.00,LWC V2.10 B1813,2013-01-11 00:36:00,
2013-01-10 15:41:00,10.7,7.4,30.60,SE,135,1.0,1.0,86,0.00,,,0.00,LWC V2.10 B1813,2013-01-11 00:41:00,
2013-01-10 15:46:00,10.7,7.4,30.60,SE,135,0.0,1.0,86,0.00,,,0.00,LWC V2.10 B1813,2013-01-11 00:46:00,
2013-01-10 15:51:00,10.7,7.4,30.60,SE,134,0.0,2.0,86,0.00,,,0.00,LWC V2.10 B1813,2013-01-11 00:51:00,
2013-01-10 15:56:00,10.7,7.4,30.60,SE,134,1.0,1.0,86,0.00,,,0.00,LWC V2.10 B1813,2013-01-11 00:56:00,
2013-01-10 16:01:00,10.6,7.3,30.60,SE,134,0.0,1.0,86,0.00,,,0.00,LWC V2.10 B1813,2013-01-11 01:01:00,
2013-01-10 16:06:00,10.6,7.3,30.60,SE,134,0.0,1.0,86,0.00,,,0.00,LWC V2.10 B1813,2013-01-11 01:06:00,
2013-01-10 16:11:00,10.6,7.3,30.60,SE,135,1.0,2.0,86,0.00,,,0.00,LWC V2.10 B1813,2013-01-11 01:11:00,
2013-01-10 16:16:00,10.6,7.3,30.60,SE,135,2.0,2.0,86,0.00,,,0.00,LWC V2.10 B1813,2013-01-11 01:16:00,
2013-01-10 16:21:00,10.6,7.3,30.60,SE,135,0.0,2.0,86,0.00,,,0.00,LWC V2.10 B1813,2013-01-11 01:21:00,
2013-01-10 16:26:00,10.6,7.3,30.60,SE,130,4.0,5.0,86,0.00,,,0.00,LWC V2.10 B1813,2013-01-11 01:26:00,
2013-01-10 16:31:00,10.5,7.2,30.61,SE,126,0.0,2.0,86,0.00,,,0.00,LWC V2.10 B1813,2013-01-11 01:31:00,
2013-01-10 16:36:00,10.4,7.1,30.61,SE,126,2.0,3.0,86,0.00,,,0.00,LWC V2.10 B1813,2013-01-11 01:36:00,
2013-01-10 16:41:00,10.4,7.1,30.61,SE,126,1.0,2.0,86,0.00,,,0.00,LWC V2.10 B1813,2013-01-11 01:41:00,
2013-01-10 16:46:00,10.4,7.3,30.61,SE,126,0.0,1.0,87,0.00,,,0.00,LWC V2.10 B1813,2013-01-11 01:46:00,
2013-01-10 16:51:00,10.4,7.3,30.61,SE,126,0.0,0.0,87,0.00,,,0.00,LWC V2.10 B1813,2013-01-11 01:51:00,
2013-01-10 16:56:00,10.5,7.4,30.61,SE,126,0.0,1.0,87,0.00,,,0.00,LWC V2.10 B1813,2013-01-11 01:56:00,
2013-01-10 17:01:00,10.5,7.4,30.61,SE,125,0.0,1.0,87,0.00,,,0.00,LWC V2.10 B1813,2013-01-11 02:01:00,
2013-01-10 17:06:00,10.5,7.4,30.61,SE,126,0.0,0.0,87,0.00,,,0.00,LWC V2.10 B1813,2013-01-11 02:06:00,
2013-01-10 17:11:00,10.6,7.5,30.61,SE,126,0.0,2.0,87,0.00,,,0.00,LWC V2.10 B1813,2013-01-11 02:11:00,
2013-01-10 17:16:00,10.6,7.5,30.61,SE,126,1.0,2.0,87,0.00,,,0.00,LWC V2.10 B1813,2013-01-11 02:16:00,
2013-01-10 17:21:00,10.6,7.5,30.61,SE,126,1.0,2.0,87,0.00,,,0.00,LWC V2.10 B1813,2013-01-11 02:21:00,
2013-01-10 17:26:00,10.6,7.5,30.62,SE,126,0.0,1.0,87,0.00,,,0.00,LWC V2.10 B1813,2013-01-11 02:26:00,
2013-01-10 17:31:00,10.6,7.5,30.62,SE,126,0.0,2.0,87,0.00,,,0.00,LWC V2.10 B1813,2013-01-11 02:31:00,
2013-01-10 17:36:00,10.6,7.8,30.61,SE,126,1.0,2.0,88,0.00,,,0.00,LWC V2.10 B1813,2013-01-11 02:36:00,
2013-01-10 17:41:00,10.5,7.7,30.61,SE,125,0.0,3.0,88,0.00,,,0.00,LWC V2.10 B1813,2013-01-11 02:41:00,
2013-01-10 17:46:00,10.5,7.7,30.62,SE,126,1.0,3.0,88,0.00,,,0.00,LWC V2.10 B1813,2013-01-11 02:46:00,
2013-01-10 17:51:00,10.4,7.6,30.61,ESE,106,2.0,4.0,88,0.00,,,0.00,LWC V2.10 B1813,2013-01-11 02:51:00,
2013-01-10 17:56:00,10.4,7.6,30.61,ESE,106,2.0,3.0,88,0.00,,,0.00,LWC V2.10 B1813,2013-01-11 02:56:00,
2013-01-10 18:01:00,10.3,7.5,30.61,ESE,106,2.0,3.0,88,0.00,,,0.00,LWC V2.10 B1813,2013-01-11 03:01:00,
2013-01-10 18:06:00,10.3,7.5,30.61,ESE,107,1.0,3.0,88,0.00,,,0.00,LWC V2.10 B1813,2013-01-11 03:06:00,
2013-01-10 18:11:00,10.3,7.5,30.61,ESE,108,2.0,2.0,88,0.00,,,0.00,LWC V2.10 B1813,2013-01-11 03:11:00,
2013-01-10 18:16:00,10.3,7.5,30.61,ESE,108,1.0,2.0,88,0.00,,,0.00,LWC V2.10 B1813,2013-01-11 03:16:00,
2013-01-10 18:21:00,10.3,7.5,30.61,ESE,107,1.0,1.0,88,0.00,,,0.00,LWC V2.10 B1813,2013-01-11 03:21:00,
2013-01-10 18:26:00,10.3,7.5,30.61,ESE,108,1.0,2.0,88,0.00,,,0.00,LWC V2.10 B1813,2013-01-11 03:26:00,
2013-01-10 18:31:00,10.3,7.5,30.61,ESE,107,1.0,1.0,88,0.00,,,0.00,LWC V2.10 B1813,2013-01-11 03:31:00,
2013-01-10 18:36:00,10.3,7.2,30.61,ESE,107,1.0,2.0,87,0.00,,,0.00,LWC V2.10 B1813,2013-01-11 03:36:00,
2013-01-10 18:41:00,10.4,7.3,30.61,ESE,108,0.0,0.0,87,0.00,,,0.00,LWC V2.10 B1813,2013-01-11 03:41:00,
2013-01-10 18:46:00,10.4,7.3,30.61,ESE,108,0.0,2.0,87,0.00,,,0.00,LWC V2.10 B1813,2013-01-11 03:46:00,
2013-01-10 18:51:00,10.4,7.6,30.61,ESE,108,0.0,1.0,88,0.00,,,0.00,LWC V2.10 B1813,2013-01-11 03:51:00,
2013-01-10 18:56:00,10.5,7.7,30.61,ESE,107,0.0,1.0,88,0.00,,,0.00,LWC V2.10 B1813,2013-01-11 03:56:00,
2013-01-10 19:01:00,10.5,7.7,30.61,ESE,108,0.0,1.0,88,0.00,,,0.00,LWC V2.10 B1813,2013-01-11 04:01:00,
2013-01-10 19:06:00,10.5,7.7,30.61,ESE,107,0.0,2.0,88,0.00,,,0.00,LWC V2.10 B1813,2013-01-11 04:06:00,
2013-01-10 19:11:00,10.5,7.7,30.61,ESE,106,1.0,2.0,88,0.00,,,0.00,LWC V2.10 B1813,2013-01-11 04:11:00,
2013-01-10 19:16:00,10.5,7.7,30.61,ESE,107,1.0,2.0,88,0.00,,,0.00,LWC V2.10 B1813,2013-01-11 04:16:00,
2013-01-10 19:21:00,10.5,7.7,30.61,ESE,103,3.0,3.0,88,0.00,,,0.00,LWC V2.10 B1813,2013-01-11 04:21:00,
2013-01-10 19:26:00,10.6,7.8,30.60,ENE,60,2.0,5.0,88,0.00,,,0.00,LWC V2.10 B1813,2013-01-11 04:26:00,
2013-01-10 19:31:00,10.7,7.9,30.61,ENE,60,2.0,3.0,88,0.00,,,0.00,LWC V2.10 B1813,2013-01-11 04:31:00,
2013-01-10 19:36:00,10.7,7.6,30.60,ENE,60,1.0,3.0,87,0.00,,,0.00,LWC V2.10 B1813,2013-01-11 04:36:00,
2013-01-10 19:41:00,10.7,7.6,30.60,ENE,60,1.0,2.0,87,0.00,,,0.00,LWC V2.10 B1813,2013-01-11 04:41:00,
2013-01-10 19:46:00,10.7,7.6,30.60,ENE,60,0.0,2.0,87,0.00,,,0.00,LWC V2.10 B1813,2013-01-11 04:46:00,
2013-01-10 19:51:00,10.7,7.6,30.60,ENE,60,1.0,3.0,87,0.00,,,0.00,LWC V2.10 B1813,2013-01-11 04:51:00,
2013-01-10 19:56:00,10.7,7.6,30.60,ENE,61,2.0,3.0,87,0.00,,,0.00,LWC V2.10 B1813,2013-01-11 04:56:00,
2013-01-10 20:00:00,10.7,7.6,30.59,ENE,60,1.0,2.0,87,0.00,,,0.00,LWC V2.10 B1813,2013-01-11 05:00:00,
2013-01-10 20:01:00,10.7,7.6,30.60,ENE,60,2.0,3.0,87,0.00,,,0.00,LWC V2.10 B1813,2013-01-11 05:01:00,
2013-01-10 20:06:00,10.7,7.6,30.60,ENE,60,1.0,4.0,87,0.00,,,0.00,LWC V2.10 B1813,2013-01-11 05:06:00,
2013-01-10 20:11:00,10.7,7.6,30.59,ENE,61,3.0,4.0,87,0.00,,,0.00,LWC V2.10 B1813,2013-01-11 05:11:00,
2013-01-10 20:16:00,10.7,7.6,30.60,ENE,61,2.0,2.0,87,0.00,,,0.00,LWC V2.10 B1813,2013-01-11 05:16:00,
2013-01-10 20:21:00,10.7,7.6,30.60,ENE,60,0.0,1.0,87,0.00,,,0.00,LWC V2.10 B1813,2013-01-11 05:21:00,
2013-01-10 20:26:00,10.7,7.6,30.60,ENE,61,1.0,2.0,87,0.00,,,0.00,LWC V2.10 B1813,2013-01-11 05:26:00,
2013-01-10 20:31:00,10.7,7.6,30.59,ENE,61,1.0,2.0,87,0.00,,,0.00,LWC V2.10 B1813,2013-01-11 05:31:00,
2013-01-10 20:36:00,10.7,7.6,30.59,ENE,60,2.0,3.0,87,0.00,,,0.00,LWC V2.10 B1813,2013-01-11 05:36:00,
2013-01-10 20:41:00,10.7,7.6,30.59,ENE,61,2.0,2.0,87,0.00,,,0.00,LWC V2.10 B1813,2013-01-11 05:41:00,
2013-01-10 20:46:00,10.7,7.4,30.59,ENE,62,0.0,2.0,86,0.00,,,0.00,LWC V2.10 B1813,2013-01-11 05:46:00,
2013-01-10 20:51:00,10.7,7.4,30.59,ENE,65,1.0,3.0,86,0.00,,,0.00,LWC V2.10 B1813,2013-01-11 05:51:00,
2013-01-10 20:56:00,10.7,7.4,30.59,ENE,64,1.0,4.0,86,0.00,,,0.00,LWC V2.10 B1813,2013-01-11 05:56:00,
2013-01-10 21:01:00,10.8,7.5,30.59,ENE,63,3.0,4.0,86,0.00,,,0.00,LWC V2.10 B1813,2013-01-11 06:01:00,
2013-01-10 21:06:00,10.8,7.5,30.58,ENE,63,2.0,4.0,86,0.00,,,0.00,LWC V2.10 B1813,2013-01-11 06:06:00,
2013-01-10 21:11:00,10.8,7.5,30.58,ENE,63,1.0,3.0,86,0.00,,,0.00,LWC V2.10 B1813,2013-01-11 06:11:00,
2013-01-10 21:16:00,10.8,7.5,30.58,ENE,63,1.0,2.0,86,0.00,,,0.00,LWC V2.10 B1813,2013-01-11 06:16:00,
2013-01-10 21:21:00,10.8,7.5,30.58,ENE,63,1.0,2.0,86,0.00,,,0.00,LWC V2.10 B1813,2013-01-11 06:21:00,
2013-01-10 21:26:00,10.8,7.5,30.58,ENE,63,0.0,1.0,86,0.00,,,0.00,LWC V2.10 B1813,2013-01-11 06:26:00,
2013-01-10 21:31:00,10.9,7.6,30.59,ENE,63,0.0,0.0,86,0.00,,,0.00,LWC V2.10 B1813,2013-01-11 06:31:00,
2013-01-10 21:36:00,10.9,7.8,30.59,ENE,63,0.0,0.0,87,0.00,,,0.00,LWC V2.10 B1813,2013-01-11 06:36:00,
2013-01-10 21:41:00,10.9,7.6,30.58,ENE,63,0.0,0.0,86,0.00,,,0.00,LWC V2.10 B1813,2013-01-11 06:41:00,
2013-01-10 21:46:00,10.5,6.9,30.58,ENE,63,1.0,1.0,85,0.00,,,0.00,LWC V2.10 B1813,2013-01-11 06:46:00,
2013-01-10 21:51:00,10.0,6.4,30.57,ENE,63,3.0,3.0,85,0.00,,,0.00,LWC V2.10 B1813,2013-01-11 06:51:00,
2013-01-10 21:56:00,9.8,6.2,30.57,ENE,70,4.0,7.0,85,0.00,,,0.00,LWC V2.10 B1813,2013-01-11 06:56:00,
2013-01-10 22:01:00,9.3,6.0,30.57,ENE,70,2.0,5.0,86,0.00,,,0.00,LWC V2.10 B1813,2013-01-11 07:01:00,
2013-01-10 22:06:00,9.0,5.7,30.56,NE,53,5.0,7.0,86,0.00,,,0.00,LWC V2.10 B1813,2013-01-11 07:06:00,
2013-01-10 22:11:00,9.1,5.8,30.56,NE,53,5.0,8.0,86,0.00,,,0.00,LWC V2.10 B1813,2013-01-11 07:11:00,
2013-01-10 22:16:00,9.1,5.8,30.55,NE,50,5.0,6.0,86,0.00,,,0.00,LWC V2.10 B1813,2013-01-11 07:16:00,
2013-01-10 22:21:00,9.2,5.9,30.55,NE,55,3.0,6.0,86,0.00,,,0.00,LWC V2.10 B1813,2013-01-11 07:21:00,
2013-01-10 22:26:00,9.2,5.9,30.55,NE,52,3.0,5.0,86,0.00,,,0.00,LWC V2.10 B1813,2013-01-11 07:26:00,
2013-01-10 22:31:00,9.3,6.0,30.55,NE,42,4.0,5.0,86,0.00,,,0.00,LWC V2.10 B1813,2013-01-11 07:31:00,
2013-01-10 22:36:00,9.5,6.2,30.55,NE,39,2.0,4.0,86,0.00,,,0.00,LWC V2.10 B1813,2013-01-11 07:36:00,
2013-01-10 22:41:00,9.6,6.3,30.54,NE,38,2.0,4.0,86,0.00,,,0.00,LWC V2.10 B1813,2013-01-11 07:41:00,
2013-01-10 22:46:00,9.9,6.6,30.54,North,10,2.0,3.0,86,0.00,,,0.00,LWC V2.10 B1813,2013-01-11 07:46:00,
2013-01-10 22:51:00,9.9,6.6,30.54,North,10,0.0,2.0,86,0.00,,,0.00,LWC V2.10 B1813,2013-01-11 07:51:00,
2013-01-10 22:56:00,9.9,6.6,30.54,North,10,1.0,2.0,86,0.00,,,0.00,LWC V2.10 B1813,2013-01-11 07:56:00,
2013-01-10 23:01:00,10.0,6.7,30.54,North,10,1.0,2.0,86,0.00,,,0.00,LWC V2.10 B1813,2013-01-11 08:01:00,
2013-01-10 23:06:00,10.0,6.7,30.54,North,10,1.0,2.0,86,0.00,,,0.00,LWC V2.10 B1813,2013-01-11 08:06:00,
2013-01-10 23:11:00,10.2,7.1,30.54,North,9,1.0,2.0,87,0.00,,,0.00,LWC V2.10 B1813,2013-01-11 08:11:00,
2013-01-10 23:16:00,10.3,7.2,30.54,North,0,2.0,3.0,87,0.00,,,0.00,LWC V2.10 B1813,2013-01-11 08:16:00,
2013-01-10 23:21:00,10.5,7.7,30.54,North,355,1.0,3.0,88,0.00,,,0.00,LWC V2.10 B1813,2013-01-11 08:21:00,
2013-01-10 23:26:00,10.6,7.8,30.54,North,355,1.0,2.0,88,0.00,,,0.00,LWC V2.10 B1813,2013-01-11 08:26:00,
2013-01-10 23:31:00,10.8,8.0,30.53,North,355,0.0,1.0,88,0.00,,,0.00,LWC V2.10 B1813,2013-01-11 08:31:00,
2013-01-10 23:36:00,10.9,8.1,30.54,North,355,0.0,1.0,88,0.00,,,0.00,LWC V2.10 B1813,2013-01-11 08:36:00,
2013-01-10 23:41:00,11.0,8.2,30.53,North,355,2.0,2.0,88,0.00,,,0.00,LWC V2.10 B1813,2013-01-11 08:41:00,
2013-01-10 23:46:00,11.2,8.4,30.53,North,355,1.0,2.0,88,0.00,,,0.00,LWC V2.10 B1813,2013-01-11 08:46:00,
2013-01-10 23:51:00,11.3,8.5,30.53,North,355,1.0,1.0,88,0.00,,,0.00,LWC V2.10 B1813,2013-01-11 08:51:00,
2013-01-10 23:56:00,11.4,8.6,30.53,North,355,1.0,3.0,88,0.00,,,0.00,LWC V2.10 B1813,2013-01-11 08:56:00,